Enter the Airport ICAO Code

Search by Airport or City

Current Weather

SCTE | El Tepual Airport

Puerto Montt, Chile

Last Update 36 Minutes Ago

Mostly Cloudy Sky

Temperature of 00 ēC Below Zero

Light Winds from NorthWest

Temperature

00 ēC Below Zero

Dew Point Temperature

00 ēC Below Zero

Relative Humidity

100 %

Wind Direction

NorthWest (330ē, Without Significant Variations)

Wind Velocity

4 km/h (02 kt)

Gusts

None

Visibility

Greater than 10 Kilometers

Sea Level Pressure

1022 hPa (Hectopascals)

Layers of Clouds

60% to 90% of Sky Covered from 1524 mts (5000 ft) Above Ground Level.

METAR SCTE 191100Z 33002KT 9999 BKN050 M00/M00 Q1022 NOSIG

Weather Forecast

SCTE | El Tepual Airport

Puerto Montt, Chile

Forecast valid for the next 24 Hours

From now on it is expected:

Mist

Light Winds from Variable Directions

In 2 to 4 hours it is expected the begining of:

Partly Cloudy Sky

Light to Moderate Winds from North

In 16 to 18 hours it is expected the begining of:

Mist

Light Winds from Variable Directions

In 20 hours it is expected the begining of 4 hours with intermittent periods of:

Fog

Maximum Temperature

10 ēC in 6 Hours

Minimum Temperature

01 ēC in 0 Hours

TAF SCTE 191039Z 1912/2012 VRB03KT 3000 BR SCT005 SCT040 TN01/1912Z TX10/1918Z BECMG 1914/1916 36008KT 9999 NSW SCT040 BECMG 2004/2006 VRB03KT 3000 BR NSC TEMPO 2008/2012 0800 FG BKN005